This is the latest recevied weather packets stored in our database for station/object SR2GKG-13. If no packets are shown the sender has not sent any weather packets the latest 10 day(s).
| Time | Temp. | Humidity | Pressure | Rain* | Wind** | Luminosity | Snow |
|---|---|---|---|---|---|---|---|
| 1777699436 | 13.89° C | 55% | 1012.3 hPa | - | - | - | - |
| 1777698536 | 11.67° C | 67% | 1012.3 hPa | - | - | - | - |
| 1777697636 | 8.89° C | 82% | 1012.3 hPa | - | - | - | - |
| 1777696736 | 7.22° C | 86% | 1012.4 hPa | - | - | - | - |
| 1777695836 | 5.56° C | 86% | 1012.4 hPa | - | - | - | - |
| 1777694936 | 5° C | 87% | 1012.5 hPa | - | - | - | - |
| 1777694036 | 4.44° C | 88% | 1012.5 hPa | - | - | - | - |
| 1777693136 | 3.89° C | 89% | 1012.5 hPa | - | - | - | - |
| 1777692236 | 3.89° C | 88% | 1012.5 hPa | - | - | - | - |
| 1777691336 | 3.89° C | 89% | 1012.6 hPa | - | - | - | - |
| 1777690436 | 3.89° C | 88% | 1012.6 hPa | - | - | - | - |
| 1777689535 | 3.89° C | 86% | 1012.6 hPa | - | - | - | - |
| 1777688635 | 4.44° C | 86% | 1012.7 hPa | - | - | - | - |
| 1777673334 | 8.33° C | 69% | 1013.2 hPa | - | - | - | - |
| 1777671534 | 8.33° C | 66% | 1013.3 hPa | - | - | - | - |
| 1777667933 | 9.44° C | 62% | 1013.1 hPa | - | - | - | - |
| 1777666133 | 10.56° C | 60% | 1013 hPa | - | - | - | - |
| 1777665233 | 10.56° C | 62% | 1012.9 hPa | - | - | - | - |
| 1777662533 | 11.67° C | 59% | 1013 hPa | - | - | - | - |
| 1777660732 | 13.33° C | 53% | 1012.9 hPa | - | - | - | - |
| 1777659832 | 13.89° C | 50% | 1012.7 hPa | - | - | - | - |
| 1777658933 | 15° C | 47% | 1012.6 hPa | - | - | - | - |
| 1777657132 | 17.78° C | 37% | 1012.5 hPa | - | - | - | - |
| 1777655332 | 20.56° C | 30% | 1012.4 hPa | - | - | - | - |
| 1777653532 | 21.67° C | 28% | 1012.5 hPa | - | - | - | - |
* Rain since midnight (hover to see other rain measurements)
** Current wind speed in m/s (hover to see current wind gust speed)